LSGM7: Little Sugar Creek nr Pineville 7SW

Data processed at Sat Aug 19 2017 21:32


All information presented herein is the property of the government of the United States of America and may be revised or deleted at any time without prior notice.
Dissemination of this information without the expressed written consent of the Public Affairs Office, Tulsa District U.S. Army Corps of Engineers is strictly prohibited.
These data are gathered electronically and, as presented, have not undergone any form of quality control. These data are not guaranteed to be valid or correct.
Go to home page.
Go to station list.

Downstream station:


Previous Day
Next Day
Current Day
    
SHEF ID:       LSGM7     Little Sugar Creek near Pinevill
STATION TYPE:  

               PRECIP     STAGE  STAGE(2)  RIV-FLOW   VOLTAGE
                   in        ft        ft       cfs      volt
              Ccp-Rev   Ccp-Rev   Ccp-Rev   Ccp-Rev   Ccp-Rev
(US/Central)
08/19 00:00      0.00      3.53      3.50       165     12.47
08/19 01:00      0.00      3.51      3.50       161     12.00
08/19 02:00      0.00      3.51      3.49       161     12.47
08/19 03:00      0.00      3.50      3.48       159     12.47
08/19 04:00      0.00      3.51      3.48       161     12.47
08/19 05:00      0.00      3.50      3.48       159     12.47
08/19 06:00      0.00      3.49      3.48       157     12.47
08/19 07:00      0.00      3.51      3.48       161     12.47
08/19 08:00      0.00      3.49      3.48       157     12.47
08/19 09:00      0.00      3.54      3.49       167     12.24
08/19 10:00      0.00      3.54      3.52       167     12.47
08/19 11:00      0.00      3.55      3.53       169     12.71
08/19 12:00      0.00      3.56      3.55       171     12.71
08/19 13:00      0.00      3.58      3.57       175     12.71
08/19 14:00      0.00      3.57      3.58       173     13.64
08/19 15:00      0.00      3.57      3.57       173     12.94
08/19 16:00      0.00      3.58      3.58       175     12.71
08/19 17:00      0.00      3.56      3.56       171     12.71
08/19 18:00      0.00      3.57      3.56       173     12.71
08/19 19:00      0.00      3.55      3.55       169     12.71
08/19 20:00      0.00      3.54      3.54       167     12.71
08/19 21:00      0.00      3.54      3.53       167     12.71
08/19 22:00      ----      ----      ----      ----      ----
08/19 23:00      ----      ----      ----      ----      ----